METAR Data
IDs: Format: Raw Decoded Include TAF

Data at: 0257 UTC 24 Apr 2019

METAR for:KOUN (Norman/Univ Oklahoma, OK, US)
Text:KOUN 240145Z 34009KT 10SM OVC009 15/13 A2997
Temperature: 15.0°C ( 59°F)
Dewpoint: 13.0°C ( 55°F) [RH = 88%]
Pressure (altimeter):29.97 inches Hg (1015.0 mb)
Winds:from the NNW (340 degrees) at 10 MPH (9 knots; 4.6 m/s)
Visibility:10 or more sm (16+ km)
Ceiling:900 feet AGL
Clouds: overcast cloud deck at 900 feet AGL
Text:KOUN 240045Z 34009KT 10SM OVC009 15/13 A2997
Temperature: 15.0°C ( 59°F)
Dewpoint: 13.0°C ( 55°F) [RH = 88%]
Pressure (altimeter):29.97 inches Hg (1015.0 mb)
Winds:from the NNW (340 degrees) at 10 MPH (9 knots; 4.6 m/s)
Visibility:10 or more sm (16+ km)
Ceiling:900 feet AGL
Clouds: overcast cloud deck at 900 feet AGL
Text:KOUN 232345Z 33009KT 10SM OVC009 16/13 A2997
Temperature: 16.0°C ( 61°F)
Dewpoint: 13.0°C ( 55°F) [RH = 82%]
Pressure (altimeter):29.97 inches Hg (1015.0 mb)
Winds:from the NNW (330 degrees) at 10 MPH (9 knots; 4.6 m/s)
Visibility:10 or more sm (16+ km)
Ceiling:900 feet AGL
Clouds: overcast cloud deck at 900 feet AGL
Text:KOUN 232245Z 33009KT 10SM OVC009 16/13 A2997
Temperature: 16.0°C ( 61°F)
Dewpoint: 13.0°C ( 55°F) [RH = 82%]
Pressure (altimeter):29.97 inches Hg (1015.0 mb)
Winds:from the NNW (330 degrees) at 10 MPH (9 knots; 4.6 m/s)
Visibility:10 or more sm (16+ km)
Ceiling:900 feet AGL
Clouds: overcast cloud deck at 900 feet AGL
Text:KOUN 232145Z 30007KT 10SM OVC009 17/14 A2999
Temperature: 17.0°C ( 63°F)
Dewpoint: 14.0°C ( 57°F) [RH = 82%]
Pressure (altimeter):29.99 inches Hg (1015.7 mb)
Winds:from the WNW (300 degrees) at 8 MPH (7 knots; 3.6 m/s)
Visibility:10 or more sm (16+ km)
Ceiling:900 feet AGL
Clouds: overcast cloud deck at 900 feet AGL
Text:KOUN 232045Z 30007KT 10SM OVC009 17/14 A2999
Temperature: 17.0°C ( 63°F)
Dewpoint: 14.0°C ( 57°F) [RH = 82%]
Pressure (altimeter):29.99 inches Hg (1015.7 mb)
Winds:from the WNW (300 degrees) at 8 MPH (7 knots; 3.6 m/s)
Visibility:10 or more sm (16+ km)
Ceiling:900 feet AGL
Clouds: overcast cloud deck at 900 feet AGL
Text:KOUN 231945Z 30007KT 10SM OVC008 16/14 A3002
Temperature: 16.0°C ( 61°F)
Dewpoint: 14.0°C ( 57°F) [RH = 88%]
Pressure (altimeter):30.02 inches Hg (1016.7 mb)
Winds:from the WNW (300 degrees) at 8 MPH (7 knots; 3.6 m/s)
Visibility:10 or more sm (16+ km)
Ceiling:800 feet AGL
Clouds: overcast cloud deck at 800 feet AGL
Text:KOUN 231847Z 28008KT 10SM OVC008 16/13 A3001
Temperature: 16.0°C ( 61°F)
Dewpoint: 13.0°C ( 55°F) [RH = 82%]
Pressure (altimeter):30.01 inches Hg (1016.3 mb)
Winds:from the W (280 degrees) at 9 MPH (8 knots; 4.1 m/s)
Visibility:10 or more sm (16+ km)
Ceiling:800 feet AGL
Clouds: overcast cloud deck at 800 feet AGL
Text:KOUN 231747Z 27008KT 10SM OVC006 16/14 A3002
Temperature: 16.0°C ( 61°F)
Dewpoint: 14.0°C ( 57°F) [RH = 88%]
Pressure (altimeter):30.02 inches Hg (1016.7 mb)
Winds:from the W (270 degrees) at 9 MPH (8 knots; 4.1 m/s)
Visibility:10 or more sm (16+ km)
Ceiling:600 feet AGL
Clouds: overcast cloud deck at 600 feet AGL
Text:KOUN 231703Z 06013KT 10SM BKN006 OVC050 16/14 A2995
Temperature: 16.0°C ( 61°F)
Dewpoint: 14.0°C ( 57°F) [RH = 88%]
Pressure (altimeter):29.95 inches Hg (1014.3 mb)
Winds:from the ENE (60 degrees) at 15 MPH (13 knots; 6.7 m/s)
Visibility:10 or more sm (16+ km)
Ceiling:600 feet AGL
Clouds: broken clouds at 600 feet AGL, overcast cloud deck at 5000 feet AGL
Text:KOUN 231647Z 04013KT 10SM -RA OVC026 14/13 A2996
Temperature: 14.0°C ( 57°F)
Dewpoint: 13.0°C ( 55°F) [RH = 94%]
Pressure (altimeter):29.96 inches Hg (1014.6 mb)
Winds:from the NE (40 degrees) at 15 MPH (13 knots; 6.7 m/s)
Visibility:10 or more sm (16+ km)
Ceiling:2600 feet AGL
Clouds: overcast cloud deck at 2600 feet AGL
Weather:-RA (light rain)
Text:KOUN 231547Z 29007KT 10SM OVC008 14/13 A3007
Temperature: 14.0°C ( 57°F)
Dewpoint: 13.0°C ( 55°F) [RH = 94%]
Pressure (altimeter):30.07 inches Hg (1018.4 mb)
Winds:from the WNW (290 degrees) at 8 MPH (7 knots; 3.6 m/s)
Visibility:10 or more sm (16+ km)
Ceiling:800 feet AGL
Clouds: overcast cloud deck at 800 feet AGL